sensor_id;sensor_type;location;lat;lon;timestamp;P1;durP1;ratioP1;P2;durP2;ratioP2
64641;SDS011;59936;51.490;5.436;2024-02-26T00:01:22;3.50;;;2.00;;
64641;SDS011;59936;51.490;5.436;2024-02-26T00:06:16;2.60;;;1.60;;
64641;SDS011;59936;51.490;5.436;2024-02-26T00:08:43;3.40;;;2.00;;
64641;SDS011;59936;51.490;5.436;2024-02-26T00:11:10;3.00;;;1.50;;
64641;SDS011;59936;51.490;5.436;2024-02-26T00:13:37;2.90;;;2.00;;
64641;SDS011;59936;51.490;5.436;2024-02-26T00:18:31;3.10;;;1.70;;
64641;SDS011;59936;51.490;5.436;2024-02-26T00:20:59;3.10;;;2.00;;
64641;SDS011;59936;51.490;5.436;2024-02-26T00:23:26;3.30;;;1.90;;
64641;SDS011;59936;51.490;5.436;2024-02-26T00:25:52;2.80;;;2.10;;
64641;SDS011;59936;51.490;5.436;2024-02-26T00:30:47;4.20;;;2.10;;
64641;SDS011;59936;51.490;5.436;2024-02-26T00:33:16;4.90;;;2.90;;
64641;SDS011;59936;51.490;5.436;2024-02-26T00:35:43;4.90;;;2.60;;
64641;SDS011;59936;51.490;5.436;2024-02-26T00:38:10;3.50;;;2.20;;
64641;SDS011;59936;51.490;5.436;2024-02-26T00:43:03;3.40;;;2.00;;
64641;SDS011;59936;51.490;5.436;2024-02-26T00:45:30;3.50;;;2.40;;
64641;SDS011;59936;51.490;5.436;2024-02-26T00:47:57;3.60;;;2.50;;
64641;SDS011;59936;51.490;5.436;2024-02-26T00:50:25;3.60;;;2.40;;
64641;SDS011;59936;51.490;5.436;2024-02-26T00:55:18;4.10;;;2.20;;
64641;SDS011;59936;51.490;5.436;2024-02-26T00:57:45;4.00;;;2.40;;
64641;SDS011;59936;51.490;5.436;2024-02-26T01:00:12;4.00;;;2.90;;
64641;SDS011;59936;51.490;5.436;2024-02-26T01:02:40;3.20;;;2.30;;
64641;SDS011;59936;51.490;5.436;2024-02-26T01:07:42;5.40;;;4.90;;
64641;SDS011;59936;51.490;5.436;2024-02-26T01:10:09;3.10;;;2.30;;
64641;SDS011;59936;51.490;5.436;2024-02-26T01:12:36;3.60;;;2.30;;
64641;SDS011;59936;51.490;5.436;2024-02-26T01:15:03;2.60;;;1.50;;
64641;SDS011;59936;51.490;5.436;2024-02-26T01:17:31;3.90;;;2.70;;
64641;SDS011;59936;51.490;5.436;2024-02-26T01:19:58;4.40;;;1.70;;
64641;SDS011;59936;51.490;5.436;2024-02-26T01:22:24;3.20;;;2.00;;
64641;SDS011;59936;51.490;5.436;2024-02-26T01:24:51;4.30;;;2.00;;
64641;SDS011;59936;51.490;5.436;2024-02-26T01:27:18;3.30;;;2.10;;
64641;SDS011;59936;51.490;5.436;2024-02-26T01:29:45;3.20;;;2.20;;
64641;SDS011;59936;51.490;5.436;2024-02-26T01:32:12;3.80;;;2.20;;
64641;SDS011;59936;51.490;5.436;2024-02-26T01:34:39;3.70;;;2.30;;
64641;SDS011;59936;51.490;5.436;2024-02-26T01:37:06;3.20;;;2.50;;
64641;SDS011;59936;51.490;5.436;2024-02-26T01:39:32;3.40;;;2.20;;
64641;SDS011;59936;51.490;5.436;2024-02-26T01:41:59;3.00;;;2.40;;
64641;SDS011;59936;51.490;5.436;2024-02-26T01:44:27;3.00;;;2.00;;
64641;SDS011;59936;51.490;5.436;2024-02-26T01:46:54;3.80;;;2.10;;
64641;SDS011;59936;51.490;5.436;2024-02-26T01:49:21;4.50;;;2.30;;
64641;SDS011;59936;51.490;5.436;2024-02-26T01:51:48;3.90;;;2.60;;
64641;SDS011;59936;51.490;5.436;2024-02-26T01:54:15;3.20;;;2.30;;
64641;SDS011;59936;51.490;5.436;2024-02-26T01:56:42;3.40;;;2.20;;
64641;SDS011;59936;51.490;5.436;2024-02-26T01:59:09;3.00;;;2.10;;
64641;SDS011;59936;51.490;5.436;2024-02-26T02:01:36;3.10;;;2.00;;
64641;SDS011;59936;51.490;5.436;2024-02-26T02:04:10;3.60;;;2.20;;
64641;SDS011;59936;51.490;5.436;2024-02-26T02:06:38;2.80;;;2.20;;
64641;SDS011;59936;51.490;5.436;2024-02-26T02:09:07;3.40;;;2.40;;
64641;SDS011;59936;51.490;5.436;2024-02-26T02:11:35;3.90;;;2.00;;
64641;SDS011;59936;51.490;5.436;2024-02-26T02:14:02;4.40;;;2.60;;
64641;SDS011;59936;51.490;5.436;2024-02-26T02:16:29;3.50;;;2.40;;
64641;SDS011;59936;51.490;5.436;2024-02-26T02:18:56;4.50;;;2.60;;
64641;SDS011;59936;51.490;5.436;2024-02-26T02:21:24;4.60;;;3.30;;
64641;SDS011;59936;51.490;5.436;2024-02-26T02:23:50;3.80;;;2.80;;
64641;SDS011;59936;51.490;5.436;2024-02-26T02:26:17;4.10;;;2.70;;
64641;SDS011;59936;51.490;5.436;2024-02-26T02:28:46;4.00;;;3.20;;
64641;SDS011;59936;51.490;5.436;2024-02-26T02:31:15;4.50;;;2.90;;
64641;SDS011;59936;51.490;5.436;2024-02-26T02:33:42;4.70;;;2.90;;
64641;SDS011;59936;51.490;5.436;2024-02-26T02:36:09;4.40;;;2.40;;
64641;SDS011;59936;51.490;5.436;2024-02-26T02:38:37;3.80;;;2.70;;
64641;SDS011;59936;51.490;5.436;2024-02-26T02:41:04;3.70;;;2.60;;
64641;SDS011;59936;51.490;5.436;2024-02-26T02:43:31;3.90;;;3.10;;
64641;SDS011;59936;51.490;5.436;2024-02-26T02:45:58;4.60;;;2.30;;
64641;SDS011;59936;51.490;5.436;2024-02-26T02:48:24;3.20;;;2.40;;
64641;SDS011;59936;51.490;5.436;2024-02-26T02:50:52;4.00;;;3.10;;
64641;SDS011;59936;51.490;5.436;2024-02-26T02:53:19;5.30;;;3.30;;
64641;SDS011;59936;51.490;5.436;2024-02-26T02:55:45;4.20;;;3.10;;
64641;SDS011;59936;51.490;5.436;2024-02-26T02:58:12;4.30;;;2.90;;
64641;SDS011;59936;51.490;5.436;2024-02-26T03:00:39;4.40;;;2.70;;
64641;SDS011;59936;51.490;5.436;2024-02-26T03:03:06;4.50;;;2.70;;
64641;SDS011;59936;51.490;5.436;2024-02-26T03:05:33;3.40;;;2.10;;
64641;SDS011;59936;51.490;5.436;2024-02-26T03:08:00;5.10;;;2.80;;
64641;SDS011;59936;51.490;5.436;2024-02-26T03:10:26;4.40;;;3.50;;
64641;SDS011;59936;51.490;5.436;2024-02-26T03:12:53;3.90;;;2.40;;
64641;SDS011;59936;51.490;5.436;2024-02-26T03:15:20;4.40;;;3.20;;
64641;SDS011;59936;51.490;5.436;2024-02-26T03:17:47;4.50;;;2.90;;
64641;SDS011;59936;51.490;5.436;2024-02-26T03:20:14;4.60;;;3.20;;
64641;SDS011;59936;51.490;5.436;2024-02-26T03:22:41;5.70;;;3.60;;
64641;SDS011;59936;51.490;5.436;2024-02-26T03:25:08;5.40;;;3.00;;
64641;SDS011;59936;51.490;5.436;2024-02-26T03:27:35;4.90;;;3.60;;
64641;SDS011;59936;51.490;5.436;2024-02-26T03:30:02;5.10;;;4.10;;
64641;SDS011;59936;51.490;5.436;2024-02-26T03:32:29;4.10;;;2.80;;
64641;SDS011;59936;51.490;5.436;2024-02-26T03:34:56;4.90;;;3.30;;
64641;SDS011;59936;51.490;5.436;2024-02-26T03:37:23;4.90;;;2.90;;
64641;SDS011;59936;51.490;5.436;2024-02-26T03:39:50;4.80;;;3.60;;
64641;SDS011;59936;51.490;5.436;2024-02-26T03:42:17;4.00;;;3.00;;
64641;SDS011;59936;51.490;5.436;2024-02-26T03:44:43;5.80;;;3.70;;
64641;SDS011;59936;51.490;5.436;2024-02-26T03:47:10;4.30;;;3.20;;
64641;SDS011;59936;51.490;5.436;2024-02-26T03:49:37;4.90;;;3.70;;
64641;SDS011;59936;51.490;5.436;2024-02-26T03:52:04;4.20;;;2.90;;
64641;SDS011;59936;51.490;5.436;2024-02-26T03:54:31;5.20;;;3.60;;
64641;SDS011;59936;51.490;5.436;2024-02-26T03:56:58;5.00;;;3.70;;
64641;SDS011;59936;51.490;5.436;2024-02-26T03:59:25;4.60;;;3.10;;
64641;SDS011;59936;51.490;5.436;2024-02-26T04:01:52;4.30;;;2.60;;
64641;SDS011;59936;51.490;5.436;2024-02-26T04:04:18;4.30;;;2.60;;
64641;SDS011;59936;51.490;5.436;2024-02-26T04:06:46;4.90;;;3.60;;
64641;SDS011;59936;51.490;5.436;2024-02-26T04:09:16;4.50;;;3.50;;
64641;SDS011;59936;51.490;5.436;2024-02-26T04:11:43;4.20;;;2.90;;
64641;SDS011;59936;51.490;5.436;2024-02-26T04:14:10;4.80;;;3.50;;
64641;SDS011;59936;51.490;5.436;2024-02-26T04:16:37;6.20;;;3.20;;
64641;SDS011;59936;51.490;5.436;2024-02-26T04:19:03;4.80;;;3.70;;
64641;SDS011;59936;51.490;5.436;2024-02-26T04:21:30;4.30;;;3.20;;
64641;SDS011;59936;51.490;5.436;2024-02-26T04:23:57;5.10;;;3.70;;
64641;SDS011;59936;51.490;5.436;2024-02-26T04:26:24;5.00;;;3.70;;
64641;SDS011;59936;51.490;5.436;2024-02-26T04:28:51;6.40;;;3.80;;
64641;SDS011;59936;51.490;5.436;2024-02-26T04:31:18;5.50;;;3.20;;
64641;SDS011;59936;51.490;5.436;2024-02-26T04:33:45;5.50;;;3.40;;
64641;SDS011;59936;51.490;5.436;2024-02-26T04:36:15;4.90;;;3.20;;
64641;SDS011;59936;51.490;5.436;2024-02-26T04:38:42;6.20;;;3.00;;
64641;SDS011;59936;51.490;5.436;2024-02-26T04:41:12;4.20;;;3.00;;
64641;SDS011;59936;51.490;5.436;2024-02-26T04:43:39;4.90;;;3.50;;
64641;SDS011;59936;51.490;5.436;2024-02-26T04:46:09;4.90;;;3.70;;
64641;SDS011;59936;51.490;5.436;2024-02-26T04:48:36;6.10;;;3.70;;
64641;SDS011;59936;51.490;5.436;2024-02-26T04:51:03;5.40;;;3.40;;
64641;SDS011;59936;51.490;5.436;2024-02-26T04:53:31;4.60;;;3.40;;
64641;SDS011;59936;51.490;5.436;2024-02-26T04:55:58;5.10;;;3.50;;
64641;SDS011;59936;51.490;5.436;2024-02-26T04:58:24;4.90;;;4.00;;
64641;SDS011;59936;51.490;5.436;2024-02-26T05:00:51;5.30;;;3.70;;
64641;SDS011;59936;51.490;5.436;2024-02-26T05:03:18;4.50;;;3.20;;
64641;SDS011;59936;51.490;5.436;2024-02-26T05:05:45;5.30;;;3.10;;
64641;SDS011;59936;51.490;5.436;2024-02-26T05:08:12;4.30;;;3.20;;
64641;SDS011;59936;51.490;5.436;2024-02-26T05:10:39;6.00;;;3.80;;
64641;SDS011;59936;51.490;5.436;2024-02-26T05:13:06;5.00;;;3.50;;
64641;SDS011;59936;51.490;5.436;2024-02-26T05:15:33;6.70;;;3.70;;
64641;SDS011;59936;51.490;5.436;2024-02-26T05:18:01;7.50;;;3.50;;
64641;SDS011;59936;51.490;5.436;2024-02-26T05:20:29;4.80;;;3.20;;
64641;SDS011;59936;51.490;5.436;2024-02-26T05:22:56;4.80;;;3.10;;
64641;SDS011;59936;51.490;5.436;2024-02-26T05:25:23;4.70;;;3.40;;
64641;SDS011;59936;51.490;5.436;2024-02-26T05:27:49;6.40;;;4.10;;
64641;SDS011;59936;51.490;5.436;2024-02-26T05:30:16;6.00;;;4.00;;
64641;SDS011;59936;51.490;5.436;2024-02-26T05:32:43;5.40;;;3.50;;
64641;SDS011;59936;51.490;5.436;2024-02-26T05:35:10;5.00;;;3.30;;
64641;SDS011;59936;51.490;5.436;2024-02-26T05:37:37;4.30;;;3.00;;
64641;SDS011;59936;51.490;5.436;2024-02-26T05:40:04;7.20;;;3.30;;
64641;SDS011;59936;51.490;5.436;2024-02-26T05:42:32;5.50;;;4.00;;
64641;SDS011;59936;51.490;5.436;2024-02-26T05:44:59;5.00;;;3.80;;
64641;SDS011;59936;51.490;5.436;2024-02-26T05:47:26;4.80;;;3.20;;
64641;SDS011;59936;51.490;5.436;2024-02-26T05:49:53;4.80;;;3.60;;
64641;SDS011;59936;51.490;5.436;2024-02-26T05:52:20;5.40;;;3.60;;
64641;SDS011;59936;51.490;5.436;2024-02-26T05:54:46;6.00;;;4.00;;
64641;SDS011;59936;51.490;5.436;2024-02-26T05:57:13;5.90;;;4.30;;
64641;SDS011;59936;51.490;5.436;2024-02-26T05:59:40;6.40;;;3.80;;
64641;SDS011;59936;51.490;5.436;2024-02-26T06:02:07;5.10;;;3.10;;
64641;SDS011;59936;51.490;5.436;2024-02-26T06:04:34;4.40;;;3.20;;
64641;SDS011;59936;51.490;5.436;2024-02-26T06:07:01;5.50;;;3.50;;
64641;SDS011;59936;51.490;5.436;2024-02-26T06:09:28;4.40;;;3.30;;
64641;SDS011;59936;51.490;5.436;2024-02-26T06:11:54;4.80;;;3.30;;
64641;SDS011;59936;51.490;5.436;2024-02-26T06:14:21;6.90;;;4.50;;
64641;SDS011;59936;51.490;5.436;2024-02-26T06:16:48;4.70;;;3.10;;
64641;SDS011;59936;51.490;5.436;2024-02-26T06:21:42;6.30;;;4.70;;
64641;SDS011;59936;51.490;5.436;2024-02-26T06:24:08;5.20;;;3.20;;
64641;SDS011;59936;51.490;5.436;2024-02-26T06:29:02;6.10;;;4.00;;
64641;SDS011;59936;51.490;5.436;2024-02-26T06:31:29;4.70;;;3.40;;
64641;SDS011;59936;51.490;5.436;2024-02-26T06:33:56;5.20;;;3.90;;
64641;SDS011;59936;51.490;5.436;2024-02-26T06:36:22;4.70;;;3.50;;
64641;SDS011;59936;51.490;5.436;2024-02-26T06:38:49;6.70;;;5.20;;
64641;SDS011;59936;51.490;5.436;2024-02-26T06:41:16;5.80;;;4.50;;
64641;SDS011;59936;51.490;5.436;2024-02-26T06:43:43;6.10;;;4.70;;
64641;SDS011;59936;51.490;5.436;2024-02-26T06:46:10;5.70;;;3.80;;
64641;SDS011;59936;51.490;5.436;2024-02-26T06:51:03;5.70;;;3.60;;
64641;SDS011;59936;51.490;5.436;2024-02-26T06:53:30;7.30;;;5.50;;
64641;SDS011;59936;51.490;5.436;2024-02-26T06:55:57;6.00;;;4.50;;
64641;SDS011;59936;51.490;5.436;2024-02-26T06:58:24;5.90;;;5.10;;
64641;SDS011;59936;51.490;5.436;2024-02-26T07:00:51;7.60;;;5.70;;
64641;SDS011;59936;51.490;5.436;2024-02-26T07:03:18;6.90;;;5.00;;
64641;SDS011;59936;51.490;5.436;2024-02-26T07:05:44;5.70;;;4.20;;
64641;SDS011;59936;51.490;5.436;2024-02-26T07:08:11;6.30;;;3.80;;
64641;SDS011;59936;51.490;5.436;2024-02-26T07:10:38;8.30;;;5.00;;
64641;SDS011;59936;51.490;5.436;2024-02-26T07:13:05;7.40;;;5.40;;
64641;SDS011;59936;51.490;5.436;2024-02-26T07:15:32;7.80;;;5.50;;
64641;SDS011;59936;51.490;5.436;2024-02-26T07:17:59;7.60;;;4.60;;
64641;SDS011;59936;51.490;5.436;2024-02-26T07:20:26;10.20;;;6.20;;
64641;SDS011;59936;51.490;5.436;2024-02-26T07:22:52;7.90;;;5.80;;
64641;SDS011;59936;51.490;5.436;2024-02-26T07:25:19;6.30;;;4.60;;
64641;SDS011;59936;51.490;5.436;2024-02-26T07:27:46;7.90;;;5.10;;
64641;SDS011;59936;51.490;5.436;2024-02-26T07:30:13;6.40;;;4.20;;
64641;SDS011;59936;51.490;5.436;2024-02-26T07:32:40;10.30;;;4.80;;
64641;SDS011;59936;51.490;5.436;2024-02-26T07:35:07;9.10;;;4.60;;
64641;SDS011;59936;51.490;5.436;2024-02-26T07:37:34;7.10;;;5.30;;
64641;SDS011;59936;51.490;5.436;2024-02-26T07:40:01;8.00;;;5.10;;
64641;SDS011;59936;51.490;5.436;2024-02-26T07:42:28;8.70;;;5.10;;
64641;SDS011;59936;51.490;5.436;2024-02-26T07:44:55;9.80;;;6.90;;
64641;SDS011;59936;51.490;5.436;2024-02-26T07:47:22;8.10;;;5.30;;
64641;SDS011;59936;51.490;5.436;2024-02-26T07:49:48;6.30;;;4.80;;
64641;SDS011;59936;51.490;5.436;2024-02-26T07:52:15;6.40;;;5.00;;
64641;SDS011;59936;51.490;5.436;2024-02-26T07:54:42;10.30;;;6.70;;
64641;SDS011;59936;51.490;5.436;2024-02-26T07:57:09;7.90;;;5.00;;
64641;SDS011;59936;51.490;5.436;2024-02-26T07:59:36;5.90;;;4.80;;
64641;SDS011;59936;51.490;5.436;2024-02-26T08:02:03;7.30;;;4.60;;
64641;SDS011;59936;51.490;5.436;2024-02-26T08:04:30;6.00;;;4.30;;
64641;SDS011;59936;51.490;5.436;2024-02-26T08:06:57;7.30;;;5.00;;
64641;SDS011;59936;51.490;5.436;2024-02-26T08:09:24;6.60;;;4.40;;
64641;SDS011;59936;51.490;5.436;2024-02-26T08:11:51;7.80;;;5.60;;
64641;SDS011;59936;51.490;5.436;2024-02-26T08:14:18;7.50;;;4.60;;
64641;SDS011;59936;51.490;5.436;2024-02-26T08:16:45;6.00;;;4.20;;
64641;SDS011;59936;51.490;5.436;2024-02-26T08:19:11;5.60;;;4.00;;
64641;SDS011;59936;51.490;5.436;2024-02-26T08:21:38;5.70;;;4.60;;
64641;SDS011;59936;51.490;5.436;2024-02-26T08:26:32;7.70;;;4.30;;
64641;SDS011;59936;51.490;5.436;2024-02-26T08:28:59;8.40;;;5.80;;
64641;SDS011;59936;51.490;5.436;2024-02-26T08:31:26;6.90;;;4.90;;
64641;SDS011;59936;51.490;5.436;2024-02-26T08:33:53;6.30;;;4.80;;
64641;SDS011;59936;51.490;5.436;2024-02-26T08:36:20;6.70;;;4.70;;
64641;SDS011;59936;51.490;5.436;2024-02-26T08:38:46;6.20;;;4.60;;
64641;SDS011;59936;51.490;5.436;2024-02-26T08:41:13;5.80;;;3.60;;
64641;SDS011;59936;51.490;5.436;2024-02-26T08:43:40;6.40;;;4.20;;
64641;SDS011;59936;51.490;5.436;2024-02-26T08:46:12;7.80;;;4.80;;
64641;SDS011;59936;51.490;5.436;2024-02-26T08:51:06;5.70;;;3.80;;
64641;SDS011;59936;51.490;5.436;2024-02-26T08:53:37;5.70;;;3.80;;
64641;SDS011;59936;51.490;5.436;2024-02-26T08:56:04;6.50;;;4.10;;
64641;SDS011;59936;51.490;5.436;2024-02-26T08:58:32;6.40;;;4.00;;
64641;SDS011;59936;51.490;5.436;2024-02-26T09:00:59;10.30;;;4.80;;
64641;SDS011;59936;51.490;5.436;2024-02-26T09:05:52;6.60;;;4.70;;
64641;SDS011;59936;51.490;5.436;2024-02-26T09:08:19;6.20;;;4.10;;
64641;SDS011;59936;51.490;5.436;2024-02-26T09:10:46;7.80;;;5.00;;
64641;SDS011;59936;51.490;5.436;2024-02-26T09:13:13;6.40;;;4.80;;
64641;SDS011;59936;51.490;5.436;2024-02-26T09:18:06;6.60;;;4.80;;
64641;SDS011;59936;51.490;5.436;2024-02-26T09:20:33;6.30;;;4.30;;
64641;SDS011;59936;51.490;5.436;2024-02-26T09:23:00;6.40;;;4.10;;
64641;SDS011;59936;51.490;5.436;2024-02-26T09:27:53;5.80;;;4.20;;
64641;SDS011;59936;51.490;5.436;2024-02-26T09:30:20;6.70;;;4.40;;
64641;SDS011;59936;51.490;5.436;2024-02-26T09:32:47;8.10;;;4.60;;
64641;SDS011;59936;51.490;5.436;2024-02-26T09:35:14;8.60;;;5.40;;
64641;SDS011;59936;51.490;5.436;2024-02-26T09:40:08;9.30;;;5.10;;
64641;SDS011;59936;51.490;5.436;2024-02-26T09:42:36;6.50;;;4.70;;
64641;SDS011;59936;51.490;5.436;2024-02-26T09:45:09;9.70;;;5.60;;
64641;SDS011;59936;51.490;5.436;2024-02-26T09:50:13;8.40;;;6.20;;
64641;SDS011;59936;51.490;5.436;2024-02-26T09:52:43;8.90;;;6.10;;
64641;SDS011;59936;51.490;5.436;2024-02-26T09:55:10;8.00;;;5.00;;
64641;SDS011;59936;51.490;5.436;2024-02-26T10:00:10;9.00;;;5.10;;
64641;SDS011;59936;51.490;5.436;2024-02-26T10:02:45;9.30;;;6.30;;
64641;SDS011;59936;51.490;5.436;2024-02-26T10:05:18;8.20;;;5.10;;
64641;SDS011;59936;51.490;5.436;2024-02-26T10:07:45;9.70;;;6.10;;
64641;SDS011;59936;51.490;5.436;2024-02-26T10:10:13;9.80;;;6.10;;
64641;SDS011;59936;51.490;5.436;2024-02-26T10:12:44;8.90;;;6.40;;
64641;SDS011;59936;51.490;5.436;2024-02-26T10:15:11;10.00;;;6.60;;
64641;SDS011;59936;51.490;5.436;2024-02-26T10:17:38;9.10;;;6.30;;
64641;SDS011;59936;51.490;5.436;2024-02-26T10:20:16;8.20;;;5.50;;
64641;SDS011;59936;51.490;5.436;2024-02-26T10:22:44;9.40;;;7.00;;
64641;SDS011;59936;51.490;5.436;2024-02-26T10:25:11;10.60;;;6.50;;
64641;SDS011;59936;51.490;5.436;2024-02-26T10:27:40;10.90;;;6.30;;
64641;SDS011;59936;51.490;5.436;2024-02-26T10:30:18;9.40;;;6.60;;
64641;SDS011;59936;51.490;5.436;2024-02-26T10:32:49;9.30;;;6.50;;
64641;SDS011;59936;51.490;5.436;2024-02-26T10:35:16;15.20;;;8.30;;
64641;SDS011;59936;51.490;5.436;2024-02-26T10:37:44;14.40;;;9.30;;
64641;SDS011;59936;51.490;5.436;2024-02-26T10:40:14;12.80;;;8.30;;
64641;SDS011;59936;51.490;5.436;2024-02-26T10:42:42;11.70;;;7.80;;
64641;SDS011;59936;51.490;5.436;2024-02-26T10:45:09;10.60;;;7.50;;
64641;SDS011;59936;51.490;5.436;2024-02-26T10:50:05;10.60;;;7.20;;
64641;SDS011;59936;51.490;5.436;2024-02-26T10:52:34;11.50;;;8.50;;
64641;SDS011;59936;51.490;5.436;2024-02-26T10:55:03;13.80;;;8.20;;
64641;SDS011;59936;51.490;5.436;2024-02-26T10:57:32;10.00;;;6.70;;
64641;SDS011;59936;51.490;5.436;2024-02-26T11:02:36;13.90;;;8.50;;
64641;SDS011;59936;51.490;5.436;2024-02-26T11:05:04;15.40;;;10.10;;
64641;SDS011;59936;51.490;5.436;2024-02-26T11:07:36;17.00;;;9.50;;
64641;SDS011;59936;51.490;5.436;2024-02-26T11:10:05;14.50;;;9.00;;
64641;SDS011;59936;51.490;5.436;2024-02-26T11:15:04;19.10;;;11.90;;
64641;SDS011;59936;51.490;5.436;2024-02-26T11:17:33;14.30;;;8.50;;
64641;SDS011;59936;51.490;5.436;2024-02-26T11:20:03;13.70;;;8.70;;
64641;SDS011;59936;51.490;5.436;2024-02-26T11:22:36;16.30;;;9.20;;
64641;SDS011;59936;51.490;5.436;2024-02-26T11:25:03;19.30;;;10.10;;
64641;SDS011;59936;51.490;5.436;2024-02-26T11:27:34;13.90;;;8.60;;
64641;SDS011;59936;51.490;5.436;2024-02-26T11:30:16;13.80;;;9.30;;
64641;SDS011;59936;51.490;5.436;2024-02-26T11:32:45;15.10;;;9.20;;
64641;SDS011;59936;51.490;5.436;2024-02-26T11:35:13;13.30;;;8.30;;
64641;SDS011;59936;51.490;5.436;2024-02-26T11:37:51;12.50;;;8.60;;
64641;SDS011;59936;51.490;5.436;2024-02-26T11:40:25;15.20;;;9.30;;
64641;SDS011;59936;51.490;5.436;2024-02-26T11:42:53;17.90;;;10.10;;
64641;SDS011;59936;51.490;5.436;2024-02-26T11:45:47;14.30;;;8.50;;
64641;SDS011;59936;51.490;5.436;2024-02-26T11:48:15;12.10;;;7.30;;
64641;SDS011;59936;51.490;5.436;2024-02-26T11:50:51;11.60;;;6.30;;
64641;SDS011;59936;51.490;5.436;2024-02-26T11:58:44;13.40;;;7.70;;
64641;SDS011;59936;51.490;5.436;2024-02-26T12:04:17;16.30;;;8.00;;
64641;SDS011;59936;51.490;5.436;2024-02-26T12:06:57;12.60;;;6.60;;
64641;SDS011;59936;51.490;5.436;2024-02-26T12:12:07;15.50;;;7.80;;
64641;SDS011;59936;51.490;5.436;2024-02-26T12:17:25;14.70;;;7.90;;
64641;SDS011;59936;51.490;5.436;2024-02-26T12:19:52;16.10;;;7.90;;
64641;SDS011;59936;51.490;5.436;2024-02-26T12:24:46;18.20;;;9.10;;
64641;SDS011;59936;51.490;5.436;2024-02-26T12:27:12;17.40;;;10.00;;
64641;SDS011;59936;51.490;5.436;2024-02-26T12:29:39;19.10;;;9.70;;
64641;SDS011;59936;51.490;5.436;2024-02-26T12:34:33;15.70;;;7.80;;
64641;SDS011;59936;51.490;5.436;2024-02-26T12:37:00;18.30;;;8.70;;
64641;SDS011;59936;51.490;5.436;2024-02-26T12:39:28;17.30;;;8.30;;
64641;SDS011;59936;51.490;5.436;2024-02-26T12:41:55;22.30;;;11.90;;
64641;SDS011;59936;51.490;5.436;2024-02-26T12:47:02;16.10;;;9.00;;
64641;SDS011;59936;51.490;5.436;2024-02-26T12:49:30;20.80;;;12.00;;
64641;SDS011;59936;51.490;5.436;2024-02-26T12:51:58;21.00;;;10.10;;
64641;SDS011;59936;51.490;5.436;2024-02-26T12:54:25;19.70;;;10.30;;
64641;SDS011;59936;51.490;5.436;2024-02-26T12:59:25;16.10;;;9.10;;
64641;SDS011;59936;51.490;5.436;2024-02-26T13:01:53;22.50;;;11.30;;
64641;SDS011;59936;51.490;5.436;2024-02-26T13:04:21;19.30;;;10.70;;
64641;SDS011;59936;51.490;5.436;2024-02-26T13:06:48;21.50;;;11.70;;
64641;SDS011;59936;51.490;5.436;2024-02-26T13:11:42;25.60;;;12.40;;
64641;SDS011;59936;51.490;5.436;2024-02-26T13:14:18;26.80;;;11.70;;
64641;SDS011;59936;51.490;5.436;2024-02-26T13:16:56;19.20;;;10.00;;
64641;SDS011;59936;51.490;5.436;2024-02-26T13:19:24;20.90;;;11.00;;
64641;SDS011;59936;51.490;5.436;2024-02-26T13:24:19;19.10;;;10.00;;
64641;SDS011;59936;51.490;5.436;2024-02-26T13:26:47;19.60;;;11.80;;
64641;SDS011;59936;51.490;5.436;2024-02-26T13:29:20;18.90;;;9.60;;
64641;SDS011;59936;51.490;5.436;2024-02-26T13:31:47;17.40;;;9.80;;
64641;SDS011;59936;51.490;5.436;2024-02-26T13:36:54;16.00;;;8.20;;
64641;SDS011;59936;51.490;5.436;2024-02-26T13:39:25;14.60;;;7.70;;
64641;SDS011;59936;51.490;5.436;2024-02-26T13:44:20;14.90;;;8.40;;
64641;SDS011;59936;51.490;5.436;2024-02-26T13:46:48;16.50;;;7.50;;
64641;SDS011;59936;51.490;5.436;2024-02-26T13:49:15;13.10;;;6.60;;
64641;SDS011;59936;51.490;5.436;2024-02-26T13:51:42;17.10;;;9.80;;
64641;SDS011;59936;51.490;5.436;2024-02-26T13:56:36;15.50;;;7.20;;
64641;SDS011;59936;51.490;5.436;2024-02-26T13:59:03;18.20;;;8.90;;
64641;SDS011;59936;51.490;5.436;2024-02-26T14:01:31;11.60;;;6.90;;
64641;SDS011;59936;51.490;5.436;2024-02-26T14:03:57;10.60;;;6.10;;
64641;SDS011;59936;51.490;5.436;2024-02-26T14:06:24;8.90;;;4.70;;
64641;SDS011;59936;51.490;5.436;2024-02-26T14:08:51;13.90;;;6.70;;
64641;SDS011;59936;51.490;5.436;2024-02-26T14:11:18;13.40;;;7.50;;
64641;SDS011;59936;51.490;5.436;2024-02-26T14:13:45;14.00;;;6.70;;
64641;SDS011;59936;51.490;5.436;2024-02-26T14:16:12;12.40;;;6.80;;
64641;SDS011;59936;51.490;5.436;2024-02-26T14:18:39;12.40;;;6.70;;
64641;SDS011;59936;51.490;5.436;2024-02-26T14:21:06;18.40;;;7.40;;
64641;SDS011;59936;51.490;5.436;2024-02-26T14:23:32;11.60;;;6.40;;
64641;SDS011;59936;51.490;5.436;2024-02-26T14:25:59;12.40;;;7.20;;
64641;SDS011;59936;51.490;5.436;2024-02-26T14:28:26;13.60;;;7.80;;
64641;SDS011;59936;51.490;5.436;2024-02-26T14:30:53;14.10;;;7.30;;
64641;SDS011;59936;51.490;5.436;2024-02-26T14:35:46;14.90;;;6.80;;
64641;SDS011;59936;51.490;5.436;2024-02-26T14:38:13;13.50;;;7.60;;
64641;SDS011;59936;51.490;5.436;2024-02-26T14:40:40;12.40;;;7.10;;
64641;SDS011;59936;51.490;5.436;2024-02-26T14:43:07;13.40;;;8.00;;
64641;SDS011;59936;51.490;5.436;2024-02-26T14:45:34;13.00;;;7.10;;
64641;SDS011;59936;51.490;5.436;2024-02-26T14:48:01;11.80;;;6.70;;
64641;SDS011;59936;51.490;5.436;2024-02-26T14:50:28;13.00;;;6.40;;
64641;SDS011;59936;51.490;5.436;2024-02-26T14:52:54;13.20;;;7.90;;
64641;SDS011;59936;51.490;5.436;2024-02-26T14:57:48;13.50;;;7.60;;
64641;SDS011;59936;51.490;5.436;2024-02-26T15:00:15;15.40;;;8.60;;
64641;SDS011;59936;51.490;5.436;2024-02-26T15:02:42;13.80;;;7.00;;
64641;SDS011;59936;51.490;5.436;2024-02-26T15:05:09;16.00;;;8.30;;
64641;SDS011;59936;51.490;5.436;2024-02-26T15:07:36;10.20;;;6.40;;
64641;SDS011;59936;51.490;5.436;2024-02-26T15:10:03;13.70;;;7.90;;
64641;SDS011;59936;51.490;5.436;2024-02-26T15:12:31;13.10;;;7.30;;
64641;SDS011;59936;51.490;5.436;2024-02-26T15:14:58;20.70;;;10.00;;
64641;SDS011;59936;51.490;5.436;2024-02-26T15:17:28;15.40;;;8.80;;
64641;SDS011;59936;51.490;5.436;2024-02-26T15:19:55;15.40;;;7.70;;
64641;SDS011;59936;51.490;5.436;2024-02-26T15:22:22;20.00;;;8.90;;
64641;SDS011;59936;51.490;5.436;2024-02-26T15:24:49;14.50;;;8.20;;
64641;SDS011;59936;51.490;5.436;2024-02-26T15:27:16;12.70;;;8.30;;
64641;SDS011;59936;51.490;5.436;2024-02-26T15:29:42;12.40;;;7.60;;
64641;SDS011;59936;51.490;5.436;2024-02-26T15:32:10;12.10;;;7.70;;
64641;SDS011;59936;51.490;5.436;2024-02-26T15:34:37;13.60;;;7.80;;
64641;SDS011;59936;51.490;5.436;2024-02-26T15:37:04;11.40;;;5.90;;
64641;SDS011;59936;51.490;5.436;2024-02-26T15:39:31;10.20;;;5.90;;
64641;SDS011;59936;51.490;5.436;2024-02-26T15:41:57;11.60;;;5.60;;
64641;SDS011;59936;51.490;5.436;2024-02-26T15:44:24;18.50;;;8.60;;
64641;SDS011;59936;51.490;5.436;2024-02-26T15:46:51;14.00;;;7.10;;
64641;SDS011;59936;51.490;5.436;2024-02-26T15:49:18;12.70;;;7.50;;
64641;SDS011;59936;51.490;5.436;2024-02-26T15:51:45;12.00;;;6.70;;
64641;SDS011;59936;51.490;5.436;2024-02-26T15:54:12;14.40;;;7.00;;
64641;SDS011;59936;51.490;5.436;2024-02-26T15:56:40;14.20;;;7.80;;
64641;SDS011;59936;51.490;5.436;2024-02-26T15:59:07;12.60;;;7.00;;
64641;SDS011;59936;51.490;5.436;2024-02-26T16:01:34;14.60;;;7.60;;
64641;SDS011;59936;51.490;5.436;2024-02-26T16:04:01;10.90;;;6.00;;
64641;SDS011;59936;51.490;5.436;2024-02-26T16:06:29;13.40;;;6.80;;
64641;SDS011;59936;51.490;5.436;2024-02-26T16:09:12;10.60;;;6.00;;
64641;SDS011;59936;51.490;5.436;2024-02-26T16:11:39;13.50;;;6.70;;
64641;SDS011;59936;51.490;5.436;2024-02-26T16:17:11;17.90;;;7.70;;
64641;SDS011;59936;51.490;5.436;2024-02-26T16:19:51;12.20;;;7.30;;